Aeroporto :







RITROVATECI SU...

 
LOGIN :

Iscrizione | Disclaimer

   EN    FR    IT 

 









Sommario :    VFR   VFR Marginale   IFR   IFR Intensivo   IFR Molto Intensivo
Visibilità : 
Base nubi : 
>= 8 km
>= 3000ft
5 / 8 km
1000 / 3000 ft
1500m / 5 km
500 / 1000 ft
800 / 1500m
200 / 500 ft
< 800m
< 200 ft
Simboli :   Temporali  Nebbia  Neve Forte  Precipitazioni Forti  Vento > 20 kt






- Altitudine del aeroporto : 461 ft
- Codice IATA : YYT


CYYT - St John's Int

ULTIMO METAR :
  • 270019Z 27021G29KT 10SM -SHRA OVC004 11/10 A3010 RMK SF8 VIS NW 2 1/2 TCU EMBD SLP198

METARs OBSOLETI :
  • 270000Z 26022KT 10SM OVC004 11/10 A3010 RMK SF8 VIS NW 4 SLP198
  • 262348Z 26021G28KT 10SM OVC004 12/11 A3010 RMK SF8 VIS NW 4 SLP197
  • 262300Z 25023G33KT 15SM OVC006 12/11 A3011 RMK SF8 SLP202
  • 262221Z 26019G28KT 15SM OVC009 12/10 A3012 RMK SF8 SLP205
  • 262200Z 26020G26KT 15SM OVC013 13/10 A3012 RMK SC8 SLP206
  • 262147Z 26018G27KT 15SM OVC014 13/10 A3014 RMK SC8 SLP210

TAF TAF CYYT
Valido dal 27 a 00 ore il 28 a 00 ore UTC


262330Z 2700/2724 24015G25KT P6SM FEW005 OVC010
TEMPO 2700/2706 5SM -SHRA BR OVC005
FM270600 27015KT 6SM -RA BR OVC008
TEMPO 2706/2708 3SM -DZ BR OVC004
FM270800 27015KT 3SM BR OVC008
TEMPO 2708/2713 1SM -DZ BR OVC003
FM271300 35010G20KT P6SM SCT008 BKN015
TEMPO 2713/2716 BKN008 OVC015
FM271600 01012G22KT P6SM BKN025
BECMG 2720/2722 VRB03KT RMK NXT FCST BY 270600Z
FIR CZQX / America del Nord



MetMap, La meteo Aeronautica in un colpo d'occhio ! - Copyright ORBIFLY Dicembre 2007 - Disclaimer

ORBIFLY MET'MAP TEAM :

Programmazione e sviluppo : Alexandra Zaïnal
Concezione : Baudouin d'Aumeries
Aiuto per la programmazione : Marc-Olivier Méhu
Supporto tecnico e logistico : Manuel Goepfert
Aiuto per la traduzione : Arnaldo La Scala

Contatto : metmap@orbifly.com




FONTI E CREDITI :

   NOAA